Time;durP1;ratioP1;P1;durP2;ratioP2;P2;SDS_P1;SDS_P2;PMS_P1;PMS_P2;Temp;Humidity;BMP_temperature;BMP_pressure;BME280_temperature;BME280_humidity;BME280_pressure;Samples;Min_cycle;Max_cycle;Signal;HPM_P1;HPM_P2
2022/03/27 00:01:41;;;;;;;;;;;12.40;28.80;;;;;;6219811;23;19923;-80
2022/03/27 00:04:09;;;;;;;;;;;12.30;28.90;;;;;;6247231;23;20228;-79
2022/03/27 00:06:35;;;;;;;;;;;12.30;29.10;;;;;;6219266;23;19916;-81
2022/03/27 00:09:02;;;;;;;;;;;12.20;29.10;;;;;;6221321;23;19919;-81
2022/03/27 00:11:29;;;;;;;;;;;12.20;28.90;;;;;;6221180;23;19920;-80
2022/03/27 00:13:59;;;;;;;;;;;12.10;29.10;;;;;;6221644;23;19978;-79
2022/03/27 00:16:26;;;;;;;;;;;12.10;29.00;;;;;;6195131;23;19915;-79
2022/03/27 00:18:53;;;;;;;;;;;12.20;29.10;;;;;;6220699;23;20411;-81
2022/03/27 00:21:22;;;;;;;;;;;12.10;29.00;;;;;;6245764;23;19916;-81
2022/03/27 00:23:50;;;;;;;;;;;12.10;29.30;;;;;;6219726;23;19955;-81
2022/03/27 00:26:16;;;;;;;;;;;12.10;29.30;;;;;;6245684;23;19915;-81
2022/03/27 00:28:43;;;;;;;;;;;12.10;29.30;;;;;;6221112;23;20160;-79
2022/03/27 00:31:11;;;;;;;;;;;12.10;29.20;;;;;;6248181;23;20324;-80
2022/03/27 00:33:38;;;;;;;;;;;12.10;29.30;;;;;;6221510;23;20244;-79
2022/03/27 00:36:06;;;;;;;;;;;12.10;29.50;;;;;;6221697;23;19920;-81
2022/03/27 00:38:33;;;;;;;;;;;12.10;29.30;;;;;;6221011;23;19919;-81
2022/03/27 00:41:01;;;;;;;;;;;12.10;29.50;;;;;;6221302;23;19923;-81
2022/03/27 00:43:28;;;;;;;;;;;12.00;29.40;;;;;;6223032;23;19922;-79
2022/03/27 00:45:55;;;;;;;;;;;12.00;29.40;;;;;;6221805;23;19981;-80
2022/03/27 00:48:23;;;;;;;;;;;12.10;30.00;;;;;;6221722;23;20299;-81
2022/03/27 00:50:51;;;;;;;;;;;12.00;29.50;;;;;;6222220;23;20331;-81
2022/03/27 00:53:18;;;;;;;;;;;12.10;29.30;;;;;;6220777;23;19943;-81
2022/03/27 00:55:45;;;;;;;;;;;12.00;29.50;;;;;;6221780;23;20378;-81
2022/03/27 00:58:13;;;;;;;;;;;12.00;29.70;;;;;;6222345;23;19942;-81
2022/03/27 01:00:46;;;;;;;;;;;12.10;29.30;;;;;;6221661;23;19922;-81
2022/03/27 01:03:14;;;;;;;;;;;12.00;29.50;;;;;;6216463;23;20361;-81
2022/03/27 01:05:41;;;;;;;;;;;12.00;29.40;;;;;;6216234;23;19998;-82
2022/03/27 01:08:09;;;;;;;;;;;12.00;29.50;;;;;;6213535;23;19970;-81
2022/03/27 01:10:36;;;;;;;;;;;12.00;29.30;;;;;;6215725;23;19966;-81
2022/03/27 01:13:04;;;;;;;;;;;12.10;29.70;;;;;;6216206;23;19927;-81
2022/03/27 01:15:34;;;;;;;;;;;12.00;29.50;;;;;;6215747;23;19951;-79
2022/03/27 01:18:01;;;;;;;;;;;12.00;29.60;;;;;;6216102;23;19916;-80
2022/03/27 01:20:39;;;;;;;;;;;12.00;29.90;;;;;;6215805;23;20332;-81
2022/03/27 01:23:10;;;;;;;;;;;12.00;29.80;;;;;;6216462;23;20338;-80
2022/03/27 01:25:37;;;;;;;;;;;12.00;29.60;;;;;;6216783;23;20295;-79
2022/03/27 01:28:05;;;;;;;;;;;12.00;29.60;;;;;;6217264;23;20340;-80
2022/03/27 01:30:32;;;;;;;;;;;12.10;29.20;;;;;;6216674;23;19916;-79
2022/03/27 01:32:59;;;;;;;;;;;12.10;29.70;;;;;;6215122;23;19919;-81
2022/03/27 01:35:25;;;;;;;;;;;12.00;29.60;;;;;;6216982;23;19966;-81
2022/03/27 01:37:52;;;;;;;;;;;12.00;29.70;;;;;;6215059;23;20352;-81
2022/03/27 01:40:19;;;;;;;;;;;12.10;29.30;;;;;;6215698;23;19915;-81
2022/03/27 01:42:46;;;;;;;;;;;12.00;29.60;;;;;;6215328;23;19939;-80
2022/03/27 01:45:13;;;;;;;;;;;12.00;29.70;;;;;;6216934;23;19923;-79
2022/03/27 01:47:40;;;;;;;;;;;12.00;29.50;;;;;;6215983;23;19916;-79
2022/03/27 01:50:07;;;;;;;;;;;11.90;29.80;;;;;;6215924;23;20295;-80
2022/03/27 01:52:34;;;;;;;;;;;11.90;29.60;;;;;;6217515;23;19950;-80
2022/03/27 01:55:01;;;;;;;;;;;12.00;29.40;;;;;;6215206;23;19966;-80
2022/03/27 01:57:28;;;;;;;;;;;12.10;29.40;;;;;;6217481;23;19920;-81
2022/03/27 01:59:54;;;;;;;;;;;12.10;29.50;;;;;;6216300;23;19916;-81
2022/03/27 02:02:24;;;;;;;;;;;12.10;29.30;;;;;;6215779;23;19916;-80
2022/03/27 02:04:52;;;;;;;;;;;12.10;29.40;;;;;;6215483;23;20337;-80
2022/03/27 02:07:20;;;;;;;;;;;12.10;29.40;;;;;;6215526;23;19971;-79
2022/03/27 02:09:47;;;;;;;;;;;12.00;29.80;;;;;;6214693;23;20654;-80
2022/03/27 02:12:14;;;;;;;;;;;11.90;30.00;;;;;;6214428;23;19916;-81
2022/03/27 02:14:41;;;;;;;;;;;11.80;30.00;;;;;;6215552;23;20345;-81
2022/03/27 02:17:08;;;;;;;;;;;11.80;29.90;;;;;;6214758;23;19920;-80
2022/03/27 02:19:35;;;;;;;;;;;11.90;29.70;;;;;;6215942;23;19916;-80
2022/03/27 02:22:03;;;;;;;;;;;11.90;29.80;;;;;;6216035;23;19931;-82
2022/03/27 02:24:30;;;;;;;;;;;11.90;29.80;;;;;;6215757;23;19938;-80
2022/03/27 02:26:57;;;;;;;;;;;11.90;30.00;;;;;;6214576;23;19919;-81
2022/03/27 02:29:23;;;;;;;;;;;11.80;29.90;;;;;;6214298;23;19920;-79
2022/03/27 02:31:50;;;;;;;;;;;11.90;29.80;;;;;;6214846;23;19916;-80
2022/03/27 02:34:17;;;;;;;;;;;12.00;29.50;;;;;;6214488;23;19922;-79
2022/03/27 02:36:44;;;;;;;;;;;12.10;29.20;;;;;;6215403;23;20328;-80
2022/03/27 02:39:11;;;;;;;;;;;12.10;29.30;;;;;;6214485;23;19915;-79
2022/03/27 02:41:43;;;;;;;;;;;12.20;29.40;;;;;;6214901;23;19970;-80
2022/03/27 02:44:12;;;;;;;;;;;12.10;29.20;;;;;;6214749;23;19915;-81
2022/03/27 02:46:39;;;;;;;;;;;12.10;29.30;;;;;;6214516;23;19916;-81
2022/03/27 02:49:06;;;;;;;;;;;12.00;29.30;;;;;;6214517;23;19927;-81
2022/03/27 02:51:32;;;;;;;;;;;12.00;30.30;;;;;;6215013;23;19942;-80
2022/03/27 02:53:59;;;;;;;;;;;12.00;29.60;;;;;;6215606;23;19982;-79
2022/03/27 02:56:26;;;;;;;;;;;11.90;29.80;;;;;;6214807;23;19924;-78
2022/03/27 02:58:53;;;;;;;;;;;11.80;30.10;;;;;;6214291;23;19974;-80
2022/03/27 03:01:20;;;;;;;;;;;11.80;29.80;;;;;;6214718;23;19955;-79
2022/03/27 03:03:47;;;;;;;;;;;11.80;29.90;;;;;;6213665;23;19990;-79
2022/03/27 03:06:14;;;;;;;;;;;11.70;30.00;;;;;;6215451;23;20337;-80
2022/03/27 03:08:41;;;;;;;;;;;11.80;29.70;;;;;;6214846;23;19920;-81
2022/03/27 03:11:08;;;;;;;;;;;11.70;29.80;;;;;;6214688;23;19923;-81
2022/03/27 03:13:35;;;;;;;;;;;11.80;29.70;;;;;;6214401;23;19916;-79
2022/03/27 03:16:02;;;;;;;;;;;11.80;29.50;;;;;;6214727;23;20370;-79
2022/03/27 03:18:29;;;;;;;;;;;11.90;29.60;;;;;;6215342;23;19916;-80
2022/03/27 03:20:56;;;;;;;;;;;11.90;29.60;;;;;;6214559;23;19919;-79
2022/03/27 03:23:23;;;;;;;;;;;11.90;29.60;;;;;;6214187;23;19972;-81
2022/03/27 03:25:50;;;;;;;;;;;11.90;29.60;;;;;;6215144;23;20282;-81
2022/03/27 03:28:32;;;;;;;;;;;11.90;29.60;;;;;;6215080;23;19916;-81
2022/03/27 03:30:59;;;;;;;;;;;11.90;29.70;;;;;;6214810;23;20394;-80
2022/03/27 03:33:26;;;;;;;;;;;11.80;30.00;;;;;;6214452;23;19919;-79
2022/03/27 03:35:54;;;;;;;;;;;11.90;29.40;;;;;;6215633;23;19967;-79
2022/03/27 03:38:20;;;;;;;;;;;11.90;29.40;;;;;;6214628;23;19916;-81
2022/03/27 03:40:47;;;;;;;;;;;12.00;29.40;;;;;;6214374;23;19920;-81
2022/03/27 03:43:14;;;;;;;;;;;11.90;29.50;;;;;;6214911;23;19922;-81
2022/03/27 03:45:41;;;;;;;;;;;11.90;29.60;;;;;;6214080;23;20262;-79
2022/03/27 03:48:08;;;;;;;;;;;11.90;29.60;;;;;;6214135;23;19916;-80
2022/03/27 03:50:35;;;;;;;;;;;11.90;29.60;;;;;;6214146;23;19916;-81
2022/03/27 03:53:03;;;;;;;;;;;11.70;30.00;;;;;;6214206;23;19920;-80
2022/03/27 03:55:29;;;;;;;;;;;11.70;29.70;;;;;;6214395;23;19962;-81
2022/03/27 03:57:56;;;;;;;;;;;11.70;29.70;;;;;;6214236;23;19916;-81
2022/03/27 04:00:25;;;;;;;;;;;11.70;29.90;;;;;;6214541;23;20249;-79
2022/03/27 04:02:52;;;;;;;;;;;11.70;29.70;;;;;;6234598;23;20253;-80
2022/03/27 04:05:19;;;;;;;;;;;11.60;30.20;;;;;;6221249;23;20267;-79
2022/03/27 04:07:45;;;;;;;;;;;11.50;30.00;;;;;;6247688;23;19965;-81
2022/03/27 04:10:14;;;;;;;;;;;11.50;30.20;;;;;;6221523;23;20398;-79
2022/03/27 04:12:41;;;;;;;;;;;11.50;30.10;;;;;;6221348;23;19915;-81
2022/03/27 04:15:08;;;;;;;;;;;11.50;30.10;;;;;;6247128;23;19926;-81
2022/03/27 04:17:46;;;;;;;;;;;11.60;29.80;;;;;;6223156;23;19915;-79
2022/03/27 04:20:14;;;;;;;;;;;11.50;30.00;;;;;;6221035;23;19969;-81
2022/03/27 04:22:41;;;;;;;;;;;11.60;29.90;;;;;;6247991;23;19915;-79
2022/03/27 04:25:09;;;;;;;;;;;11.60;30.00;;;;;;6246961;23;19919;-79
2022/03/27 04:27:36;;;;;;;;;;;11.60;29.90;;;;;;6220759;23;19915;-81
2022/03/27 04:30:03;;;;;;;;;;;11.60;29.90;;;;;;6221183;23;20402;-79
2022/03/27 04:32:30;;;;;;;;;;;11.60;30.00;;;;;;6221073;23;20288;-79
2022/03/27 04:34:57;;;;;;;;;;;11.50;30.00;;;;;;6220973;23;20051;-81
2022/03/27 04:37:23;;;;;;;;;;;11.40;30.50;;;;;;6221194;23;19916;-81
2022/03/27 04:39:51;;;;;;;;;;;11.50;30.30;;;;;;6221071;23;19915;-79
2022/03/27 04:42:18;;;;;;;;;;;11.50;30.20;;;;;;6247414;23;19927;-79
2022/03/27 04:44:44;;;;;;;;;;;11.40;30.30;;;;;;6247118;23;19962;-79
2022/03/27 04:47:11;;;;;;;;;;;11.40;30.00;;;;;;6221303;23;19923;-79
2022/03/27 04:49:38;;;;;;;;;;;11.50;30.00;;;;;;6246889;23;19915;-80
2022/03/27 04:52:05;;;;;;;;;;;11.60;30.00;;;;;;6220783;23;20218;-81
2022/03/27 04:54:32;;;;;;;;;;;11.60;30.00;;;;;;6221342;23;19965;-81
2022/03/27 04:56:59;;;;;;;;;;;11.50;30.10;;;;;;6220459;23;19916;-79
2022/03/27 04:59:26;;;;;;;;;;;11.50;30.80;;;;;;6220656;23;19919;-81
2022/03/27 05:01:52;;;;;;;;;;;11.40;30.40;;;;;;6221098;23;19942;-79
2022/03/27 05:04:19;;;;;;;;;;;11.40;30.30;;;;;;6221330;23;20287;-79
2022/03/27 05:06:46;;;;;;;;;;;11.50;30.00;;;;;;6220512;23;19945;-81
2022/03/27 05:09:13;;;;;;;;;;;11.50;30.20;;;;;;6220712;23;19919;-79
2022/03/27 05:11:40;;;;;;;;;;;11.50;30.10;;;;;;6220741;23;19916;-79
2022/03/27 05:14:08;;;;;;;;;;;11.50;30.20;;;;;;6220745;23;19919;-81
2022/03/27 05:16:34;;;;;;;;;;;11.40;30.50;;;;;;6220604;23;20339;-79
2022/03/27 05:19:01;;;;;;;;;;;11.40;30.70;;;;;;6220517;23;20362;-81
2022/03/27 05:21:28;;;;;;;;;;;11.40;30.70;;;;;;6220439;23;20351;-81
2022/03/27 05:23:55;;;;;;;;;;;11.40;30.50;;;;;;6219836;23;19919;-79
2022/03/27 05:26:22;;;;;;;;;;;11.30;30.80;;;;;;6221562;23;19916;-79
2022/03/27 05:28:48;;;;;;;;;;;11.40;30.20;;;;;;6220678;23;19965;-79
2022/03/27 05:31:15;;;;;;;;;;;11.40;30.60;;;;;;6247919;23;20290;-79
2022/03/27 05:33:42;;;;;;;;;;;11.40;30.70;;;;;;6220385;23;19915;-79
2022/03/27 05:36:10;;;;;;;;;;;11.30;30.90;;;;;;6220086;23;19916;-81
2022/03/27 05:38:40;;;;;;;;;;;11.40;30.60;;;;;;6220733;23;19965;-81
2022/03/27 05:41:07;;;;;;;;;;;11.40;31.10;;;;;;6220341;23;19973;-79
2022/03/27 05:43:34;;;;;;;;;;;11.30;30.90;;;;;;6247469;23;19945;-82
2022/03/27 05:46:01;;;;;;;;;;;11.20;31.20;;;;;;6220418;23;19919;-81
2022/03/27 05:48:34;;;;;;;;;;;11.20;32.10;;;;;;6221977;23;20324;-82
2022/03/27 05:51:01;;;;;;;;;;;11.20;31.50;;;;;;6220583;23;19915;-79
2022/03/27 05:53:27;;;;;;;;;;;11.30;31.40;;;;;;6220326;23;19997;-80
2022/03/27 05:55:54;;;;;;;;;;;11.30;31.40;;;;;;6220323;23;19922;-79
2022/03/27 05:58:21;;;;;;;;;;;11.30;31.20;;;;;;6219635;23;19915;-80
2022/03/27 06:00:49;;;;;;;;;;;11.40;31.00;;;;;;6195094;23;19923;-79
2022/03/27 06:03:16;;;;;;;;;;;11.30;31.50;;;;;;6214912;23;19922;-79
2022/03/27 06:05:43;;;;;;;;;;;11.40;31.10;;;;;;6214805;23;19915;-80
2022/03/27 06:08:10;;;;;;;;;;;11.40;31.30;;;;;;6215545;23;20253;-82
2022/03/27 06:10:39;;;;;;;;;;;11.40;30.80;;;;;;6215088;23;19920;-79
2022/03/27 06:13:05;;;;;;;;;;;11.50;30.60;;;;;;6214913;23;19970;-79
2022/03/27 06:15:32;;;;;;;;;;;11.50;31.30;;;;;;6214982;23;19926;-80
2022/03/27 06:17:59;;;;;;;;;;;11.50;30.80;;;;;;6216279;23;19939;-79
2022/03/27 06:20:27;;;;;;;;;;;11.50;31.20;;;;;;6215145;23;19919;-79
2022/03/27 06:22:55;;;;;;;;;;;11.50;31.50;;;;;;6214532;23;19916;-81
2022/03/27 06:25:23;;;;;;;;;;;11.50;30.90;;;;;;6214822;23;19962;-78
2022/03/27 06:27:49;;;;;;;;;;;11.60;30.90;;;;;;6215908;23;19915;-79
2022/03/27 06:30:17;;;;;;;;;;;11.60;30.80;;;;;;6214618;23;19915;-81
2022/03/27 06:32:45;;;;;;;;;;;11.70;30.70;;;;;;6214456;23;19922;-81
2022/03/27 06:35:15;;;;;;;;;;;11.70;30.60;;;;;;6215469;23;19920;-80
2022/03/27 06:37:42;;;;;;;;;;;11.70;31.30;;;;;;6214541;23;20295;-81
2022/03/27 06:40:09;;;;;;;;;;;11.70;30.80;;;;;;6214864;23;20321;-79
2022/03/27 06:42:36;;;;;;;;;;;11.70;31.30;;;;;;6216131;23;19916;-81
2022/03/27 06:45:03;;;;;;;;;;;11.70;30.90;;;;;;6216134;23;19942;-81
2022/03/27 06:47:31;;;;;;;;;;;11.80;30.80;;;;;;6215783;23;19962;-81
2022/03/27 06:49:58;;;;;;;;;;;11.80;30.80;;;;;;6214697;23;19915;-81
2022/03/27 06:52:26;;;;;;;;;;;11.90;30.80;;;;;;6214737;23;19922;-81
2022/03/27 06:54:54;;;;;;;;;;;11.90;31.30;;;;;;6214519;23;20264;-79
2022/03/27 06:57:21;;;;;;;;;;;11.90;30.70;;;;;;6214760;23;20226;-79
2022/03/27 07:05:22;;;;;;;;;;;11.90;31.40;;;;;;6245880;23;19919;-81
2022/03/27 07:07:52;;;;;;;;;;;11.90;30.90;;;;;;6220038;23;19927;-78
2022/03/27 07:10:19;;;;;;;;;;;11.90;31.60;;;;;;6245647;23;19919;-79
2022/03/27 07:12:48;;;;;;;;;;;12.00;31.20;;;;;;6246243;23;19915;-80
2022/03/27 07:15:14;;;;;;;;;;;12.10;31.20;;;;;;6245648;23;19916;-81
2022/03/27 07:17:47;;;;;;;;;;;12.10;31.00;;;;;;6220306;23;19919;-79
2022/03/27 07:20:18;;;;;;;;;;;12.10;30.90;;;;;;6219250;23;19955;-79
2022/03/27 07:22:45;;;;;;;;;;;12.20;31.50;;;;;;6246178;23;20332;-82
2022/03/27 07:25:12;;;;;;;;;;;12.20;31.00;;;;;;6219639;23;19965;-80
2022/03/27 07:27:39;;;;;;;;;;;12.30;30.40;;;;;;6219138;23;19924;-80
2022/03/27 07:30:06;;;;;;;;;;;12.40;30.30;;;;;;6245520;23;19923;-78
2022/03/27 07:32:33;;;;;;;;;;;12.40;31.00;;;;;;6245699;23;19923;-79
2022/03/27 07:35:00;;;;;;;;;;;12.50;31.10;;;;;;6218756;23;20382;-79
2022/03/27 07:37:27;;;;;;;;;;;12.60;30.00;;;;;;6220667;23;20248;-80
2022/03/27 07:39:54;;;;;;;;;;;12.60;30.40;;;;;;6247564;23;20010;-79
2022/03/27 07:42:21;;;;;;;;;;;12.70;30.10;;;;;;6221824;23;19916;-81
2022/03/27 07:44:48;;;;;;;;;;;12.80;30.40;;;;;;6221360;23;19977;-80
2022/03/27 07:47:15;;;;;;;;;;;13.00;30.00;;;;;;6221865;23;20279;-80
2022/03/27 07:49:42;;;;;;;;;;;13.10;29.70;;;;;;6248275;23;19915;-79
2022/03/27 07:52:08;;;;;;;;;;;13.20;29.60;;;;;;6220936;23;19973;-81
2022/03/27 07:54:35;;;;;;;;;;;13.30;29.90;;;;;;6221412;23;19977;-79
2022/03/27 07:57:02;;;;;;;;;;;13.30;30.10;;;;;;6248224;23;19916;-80
2022/03/27 07:59:29;;;;;;;;;;;13.40;29.30;;;;;;6196293;23;19966;-79
2022/03/27 08:01:56;;;;;;;;;;;13.50;29.50;;;;;;6221503;23;19920;-81
2022/03/27 08:04:23;;;;;;;;;;;13.60;29.60;;;;;;6222309;23;19922;-80
2022/03/27 08:06:51;;;;;;;;;;;13.60;30.00;;;;;;6221663;23;19916;-83
2022/03/27 08:09:18;;;;;;;;;;;13.70;29.20;;;;;;6248315;23;19919;-80
2022/03/27 08:11:45;;;;;;;;;;;13.80;29.40;;;;;;6247101;23;19977;-79
2022/03/27 08:14:11;;;;;;;;;;;13.90;29.70;;;;;;6221391;23;19966;-79
2022/03/27 08:16:38;;;;;;;;;;;14.00;28.50;;;;;;6247790;23;19919;-80
2022/03/27 08:19:05;;;;;;;;;;;14.00;28.60;;;;;;6221569;23;19916;-82
2022/03/27 08:21:32;;;;;;;;;;;14.10;28.90;;;;;;6226898;23;19938;-83
2022/03/27 08:23:59;;;;;;;;;;;14.10;28.90;;;;;;6221939;23;20294;-82
2022/03/27 08:29:11;;;;;;;;;;;14.30;28.40;;;;;;6249206;23;19916;-80
2022/03/27 08:31:38;;;;;;;;;;;14.40;28.50;;;;;;6247005;23;19919;-81
2022/03/27 08:34:05;;;;;;;;;;;14.50;28.10;;;;;;6221940;23;19916;-80
2022/03/27 08:36:31;;;;;;;;;;;14.60;27.70;;;;;;6221076;23;19916;-82
2022/03/27 08:38:58;;;;;;;;;;;14.60;27.90;;;;;;6221630;23;19990;-80
2022/03/27 08:41:25;;;;;;;;;;;14.60;28.50;;;;;;6220575;23;19915;-82
2022/03/27 08:43:58;;;;;;;;;;;14.60;28.10;;;;;;6221710;23;20013;-80
2022/03/27 08:46:29;;;;;;;;;;;14.50;28.20;;;;;;6220499;23;20325;-80
2022/03/27 08:49:23;;;;;;;;;;;14.50;28.90;;;;;;6247627;23;19916;-79
2022/03/27 08:51:53;;;;;;;;;;;14.60;28.70;;;;;;6176349;23;19923;-81
2022/03/27 08:54:23;;;;;;;;;;;14.70;28.10;;;;;;6220994;23;20320;-80
2022/03/27 08:56:57;;;;;;;;;;;14.80;28.00;;;;;;6221043;23;19915;-80
2022/03/27 08:59:24;;;;;;;;;;;14.90;27.60;;;;;;6221376;23;19916;-81
2022/03/27 09:01:51;;;;;;;;;;;14.90;28.40;;;;;;6220523;23;19915;-81
2022/03/27 09:04:18;;;;;;;;;;;15.00;28.30;;;;;;6220933;23;19923;-80
2022/03/27 09:06:45;;;;;;;;;;;15.10;27.70;;;;;;6220011;23;19930;-80
2022/03/27 09:09:12;;;;;;;;;;;15.20;28.20;;;;;;6220816;23;20253;-80
2022/03/27 09:11:39;;;;;;;;;;;15.30;28.00;;;;;;6220233;23;20361;-81
2022/03/27 09:14:08;;;;;;;;;;;15.50;27.10;;;;;;6220480;23;19916;-80
2022/03/27 09:16:53;;;;;;;;;;;15.70;27.60;;;;;;6220085;23;19923;-79
2022/03/27 09:19:31;;;;;;;;;;;15.80;27.80;;;;;;6247340;23;20264;-81
2022/03/27 09:21:59;;;;;;;;;;;16.00;27.10;;;;;;6219958;23;19989;-80
2022/03/27 09:24:34;;;;;;;;;;;16.10;27.00;;;;;;6247326;23;20393;-81
2022/03/27 09:27:01;;;;;;;;;;;16.20;26.20;;;;;;6220023;23;19915;-82
2022/03/27 09:29:28;;;;;;;;;;;16.20;27.40;;;;;;6220706;23;19920;-81
2022/03/27 09:31:58;;;;;;;;;;;16.20;26.60;;;;;;6220595;23;19919;-81
2022/03/27 09:34:25;;;;;;;;;;;16.20;26.80;;;;;;6246594;23;20283;-81
2022/03/27 09:36:52;;;;;;;;;;;16.10;26.90;;;;;;6220714;23;20397;-81
2022/03/27 09:39:20;;;;;;;;;;;16.30;26.90;;;;;;6220508;23;19961;-81
2022/03/27 09:41:54;;;;;;;;;;;16.30;26.70;;;;;;6220030;23;20271;-80
2022/03/27 09:44:23;;;;;;;;;;;16.50;27.50;;;;;;6221031;23;19942;-80
2022/03/27 09:47:04;;;;;;;;;;;16.50;26.60;;;;;;6220848;23;19923;-80
2022/03/27 09:49:30;;;;;;;;;;;16.60;27.40;;;;;;6220567;23;19915;-80
2022/03/27 09:52:16;;;;;;;;;;;16.80;27.10;;;;;;6220811;23;19920;-82
2022/03/27 09:54:51;;;;;;;;;;;17.10;27.60;;;;;;6221130;23;19946;-82
2022/03/27 09:57:30;;;;;;;;;;;17.40;26.10;;;;;;6222628;23;19919;-82
2022/03/27 10:00:08;;;;;;;;;;;17.80;26.40;;;;;;6220461;23;20344;-81
2022/03/27 10:02:35;;;;;;;;;;;18.00;27.10;;;;;;6246733;23;19916;-81
2022/03/27 10:05:11;;;;;;;15.55;11.32;;;18.30;26.20;;;;;;6219185;23;19943;-80
2022/03/27 10:07:40;;;;;;;17.48;12.30;;;18.40;26.50;;;;;;6218281;23;20378;-81
2022/03/27 10:10:15;;;;;;;15.93;12.03;;;18.70;26.10;;;;;;6220135;23;20380;-81
2022/03/27 10:12:45;;;;;;;17.75;13.85;;;18.80;25.80;;;;;;6218451;23;20407;-82
2022/03/27 10:15:15;;;;;;;16.90;13.30;;;18.90;25.70;;;;;;6217429;23;20744;-81
2022/03/27 10:18:13;;;;;;;19.73;14.73;;;19.10;24.50;;;;;;6221750;23;20369;-81
2022/03/27 10:20:41;;;;;;;17.92;14.88;;;19.30;24.80;;;;;;6245722;23;20385;-80
2022/03/27 10:23:14;;;;;;;20.67;16.25;;;19.40;23.70;;;;;;6220598;23;20678;-81
2022/03/27 10:25:48;;;;;;;20.23;16.05;;;19.30;23.80;;;;;;6245670;23;20876;-81
2022/03/27 10:28:18;;;;;;;21.75;16.70;;;19.20;24.50;;;;;;6219514;23;20365;-82
2022/03/27 10:30:45;;;;;;;19.55;16.13;;;18.90;22.80;;;;;;6220262;23;20848;-81
2022/03/27 10:33:13;;;;;;;20.27;16.50;;;18.90;24.60;;;;;;6217968;23;20411;-81
2022/03/27 10:36:09;;;;;;;18.63;15.55;;;19.10;24.50;;;;;;6220595;23;20725;-81
2022/03/27 10:39:14;;;;;;;19.90;16.33;;;19.30;26.30;;;;;;6219607;23;20353;-81
2022/03/27 10:41:43;;;;;;;21.83;17.83;;;19.60;24.90;;;;;;6244308;23;20365;-80
2022/03/27 10:44:31;;;;;;;25.65;18.83;;;19.50;23.20;;;;;;6221705;23;20419;-81
2022/03/27 10:47:24;;;;;;;23.13;18.98;;;19.10;22.90;;;;;;6218102;23;20764;-81
2022/03/27 10:50:00;;;;;;;25.70;20.38;;;19.00;23.80;;;;;;6217676;23;20404;-80
2022/03/27 10:52:38;;;;;;;25.10;19.42;;;18.80;24.50;;;;;;6218158;23;20365;-81
2022/03/27 10:55:11;;;;;;;25.65;19.50;;;18.50;23.80;;;;;;6220221;23;20419;-80
2022/03/27 10:57:51;;;;;;;22.17;17.80;;;18.40;24.70;;;;;;6217779;23;20404;-80
2022/03/27 11:00:50;;;;;;;25.02;20.10;;;18.50;26.40;;;;;;6213540;23;20369;-82
2022/03/27 11:03:44;;;;;;;24.55;19.27;;;18.70;24.60;;;;;;6142283;23;20365;-80
2022/03/27 11:06:28;;;;;;;23.17;19.07;;;18.80;24.80;;;;;;6217513;23;20996;-80
2022/03/27 11:08:57;;;;;;;24.50;19.63;;;18.60;24.80;;;;;;6217839;23;20805;-79
2022/03/27 11:11:53;;;;;;;24.60;19.23;;;18.60;24.10;;;;;;6219079;23;20369;-80
2022/03/27 11:14:44;;;;;;;23.88;18.45;;;18.80;23.60;;;;;;6180406;23;21020;-79
2022/03/27 11:17:13;;;;;;;25.40;19.07;;;19.10;24.20;;;;;;6219393;23;20443;-80
2022/03/27 11:19:46;;;;;;;26.10;18.90;;;19.20;24.30;;;;;;6220952;23;20377;-81
2022/03/27 11:22:42;;;;;;;25.58;19.10;;;19.40;24.10;;;;;;6218050;23;20361;-80
2022/03/27 11:25:28;;;;;;;22.90;18.55;;;19.70;24.40;;;;;;6217761;23;20387;-82
2022/03/27 11:28:01;;;;;;;25.02;19.00;;;19.90;23.90;;;;;;6217908;23;20890;-82
2022/03/27 11:30:30;;;;;;;25.33;19.50;;;20.10;23.50;;;;;;6218824;23;20361;-82
2022/03/27 11:33:23;;;;;;;23.23;18.83;;;20.30;23.10;;;;;;6217752;23;20741;-81
2022/03/27 11:36:09;;;;;;;22.25;19.20;;;20.30;23.40;;;;;;6218133;23;20369;-80
2022/03/27 11:38:51;;;;;;;26.92;19.65;;;20.30;23.90;;;;;;6219455;23;20372;-80
2022/03/27 11:41:42;;;;;;;24.20;19.10;;;20.00;24.40;;;;;;6219716;23;20362;-81
2022/03/27 11:47:20;;;;;;;26.63;20.20;;;20.40;23.80;;;;;;6244789;23;20380;-82
2022/03/27 11:49:49;;;;;;;25.13;20.88;;;20.40;22.70;;;;;;6217618;23;20353;-81
2022/03/27 11:52:18;;;;;;;27.40;21.23;;;20.70;22.80;;;;;;6219706;23;20357;-81
2022/03/27 11:55:03;;;;;;;29.30;21.80;;;20.80;23.40;;;;;;6222423;23;20943;-80
2022/03/27 11:57:51;;;;;;;;;;;21.00;23.30;;;;;;6221421;23;20463;-80
2022/03/27 12:00:33;;;;;;;;;;;21.20;24.90;;;;;;6223908;23;19923;-80
2022/03/27 12:03:01;;;;;;;;;;;21.30;23.20;;;;;;6220932;23;19946;-81
2022/03/27 12:05:37;;;;;;;;;;;21.60;22.70;;;;;;6220169;23;21247;-81
2022/03/27 12:08:05;;;;;;;;;;;21.40;22.00;;;;;;6218799;23;19966;-80
2022/03/27 12:10:43;;;;;;;;;;;21.40;23.40;;;;;;6220994;23;19930;-81
2022/03/27 12:13:10;;;;;;;;;;;21.50;23.00;;;;;;6221705;23;19978;-81
2022/03/27 12:15:52;;;;;;;;;;;21.30;22.40;;;;;;6221210;23;19951;-80
2022/03/27 12:18:35;;;;;;;;;;;21.00;22.80;;;;;;6220199;23;20295;-82
2022/03/27 12:21:07;;;;;;;;;;;21.00;23.40;;;;;;6220317;23;20008;-81
2022/03/27 12:23:35;;;;;;;;;;;21.00;23.00;;;;;;6219987;23;19973;-80
2022/03/27 12:29:39;;;;;;;;;;;21.00;23.10;;;;;;6221215;23;20332;-81
2022/03/27 12:32:13;;;;;;;;;;;21.00;23.00;;;;;;6247993;23;19985;-81
2022/03/27 12:34:42;;;;;;;;;;;21.00;22.80;;;;;;6222734;23;19939;-81
2022/03/27 12:37:19;;;;;;;;;;;21.10;23.00;;;;;;6221854;23;19950;-82
2022/03/27 12:39:46;;;;;;;;;;;21.20;23.20;;;;;;6221121;23;19970;-79
2022/03/27 12:42:36;;;;;;;;;;;21.30;22.40;;;;;;6223646;23;19926;-80
2022/03/27 12:45:11;;;;;;;;;;;21.00;22.90;;;;;;6223485;23;19969;-80
2022/03/27 12:47:47;;;;;;;30.42;22.17;;;20.70;23.50;;;;;;6222042;23;19927;-80
2022/03/27 12:50:39;;;;;;;31.85;22.35;;;20.90;23.20;;;;;;6220772;23;20030;-81
2022/03/27 12:53:24;;;;;;;36.70;22.83;;;21.20;23.10;;;;;;6221847;23;20020;-81
2022/03/27 12:55:51;;;;;;;33.15;23.75;;;21.40;23.70;;;;;;6222110;23;20024;-80
2022/03/27 12:58:39;;;;;;;;;;;21.60;23.30;;;;;;6223270;23;20020;-80
2022/03/27 13:01:18;;;;;;;29.77;20.45;;;21.80;22.50;;;;;;6222361;23;19920;-81
2022/03/27 13:04:18;;;;;;;28.55;21.88;;;22.40;22.60;;;;;;6220167;23;20461;-81
2022/03/27 13:07:03;;;;;;;29.70;19.40;;;22.50;21.90;;;;;;6140820;23;20381;-81
2022/03/27 13:09:30;;;;;;;23.23;19.10;;;22.60;20.30;;;;;;6248079;23;20354;-81
2022/03/27 13:11:57;;;;;;;25.35;18.77;;;22.60;21.30;;;;;;6220749;23;20353;-81
2022/03/27 13:14:26;;;;;;;26.13;19.63;;;22.70;19.20;;;;;;6220756;23;20673;-81
2022/03/27 13:16:58;;;;;;;26.45;19.98;;;22.60;20.80;;;;;;6219126;23;20836;-82
2022/03/27 13:19:42;;;;;;;23.08;19.38;;;22.60;19.40;;;;;;6219766;23;20440;-82
2022/03/27 13:22:09;;;;;;;25.35;19.80;;;22.70;19.70;;;;;;6219653;23;20412;-81
2022/03/27 13:24:36;;;;;;;24.25;18.63;;;22.50;19.70;;;;;;6219482;23;20400;-80
2022/03/27 13:27:06;;;;;;;25.50;19.20;;;23.00;19.90;;;;;;6220588;23;20386;-81
2022/03/27 13:29:33;;;;;;;25.55;20.50;;;23.40;19.70;;;;;;6220353;23;20365;-80
2022/03/27 13:32:00;;;;;;;24.38;19.58;;;23.70;19.70;;;;;;6221781;23;20431;-80
2022/03/27 13:34:29;;;;;;;26.60;20.60;;;23.00;19.80;;;;;;6220539;23;20377;-82
2022/03/27 13:36:57;;;;;;;23.65;18.63;;;23.20;19.30;;;;;;6220051;23;20407;-80
2022/03/27 13:39:25;;;;;;;23.80;19.02;;;23.20;21.00;;;;;;6245058;23;20384;-81
2022/03/27 13:44:40;;;;;;;23.40;18.23;;;23.70;20.40;;;;;;6246409;23;20368;-80
2022/03/27 13:47:09;;;;;;;20.08;15.48;;;23.50;18.70;;;;;;6219312;23;20433;-80
2022/03/27 13:49:37;;;;;;;20.92;16.85;;;23.50;17.60;;;;;;6220664;23;20373;-80
2022/03/27 13:52:05;;;;;;;20.75;17.55;;;23.70;18.60;;;;;;6219325;23;20373;-80
2022/03/27 13:54:32;;;;;;;23.73;18.70;;;23.80;18.20;;;;;;6220406;23;20427;-81
2022/03/27 13:56:59;;;;;;;22.75;18.83;;;23.80;18.80;;;;;;6220355;23;20468;-80
2022/03/27 13:59:26;;;;;;;23.35;18.80;;;23.50;19.60;;;;;;6218136;23;20432;-81
2022/03/27 14:01:53;;;;;;;22.60;18.27;;;23.40;18.80;;;;;;6245476;23;20380;-80
2022/03/27 14:04:21;;;;;;;23.83;18.13;;;23.40;19.60;;;;;;6221610;23;20879;-79
2022/03/27 14:06:52;;;;;;;19.67;16.17;;;23.60;19.50;;;;;;6219453;23;20381;-81
2022/03/27 14:09:19;;;;;;;16.30;13.48;;;23.50;18.10;;;;;;6218849;23;20460;-81
2022/03/27 14:11:47;;;;;;;14.75;13.05;;;23.90;19.60;;;;;;6217978;23;20789;-81
2022/03/27 14:14:14;;;;;;;15.93;13.15;;;24.50;16.90;;;;;;6244879;23;20393;-81
2022/03/27 14:16:43;;;;;;;15.32;12.75;;;24.80;17.30;;;;;;6220050;23;20388;-81
2022/03/27 14:19:10;;;;;;;17.92;13.38;;;24.20;16.80;;;;;;6219815;23;20360;-82
2022/03/27 14:21:37;;;;;;;15.75;13.75;;;23.90;16.80;;;;;;6220317;23;20365;-80
2022/03/27 14:24:05;;;;;;;17.20;14.40;;;23.60;17.60;;;;;;6219310;23;20357;-81